Terminal Aerodrome Forecast
Issued by NWS Caribou, ME

Home | Current Version | Previous Version | Text Only | Print | Product List | Glossary On
Versions: 1 2 3 4 5 6 7 8 9 10 11 12 13 14 15 16 17 18
245
FTUS41 KCAR 211720
TAFCAR
TAF
KCAR 211720Z 2118/2218 29008KT P6SM VCTS BKN050CB
      TEMPO 2122/2124 30015G35KT 2SM TS BKN030CB
     FM220000 30005KT P6SM VCSH BKN060
     FM220100 29004KT P6SM SCT120
     FM221400 30010G17KT P6SM FEW045=

USA.gov is the U.S. government's official web portal to all federal, state and local government web resources and services.